Crooked River, Oregon
Current Conditions -  °F | °C
As of 12:56 PM on Thursday 23 Oct 2014 (Local Time) from KRDM Reporting Station
Broken Clouds Broken Clouds  
Wind Chill: 52°   Ceiling: 6500
Heat Index: 52°   Visibility: 10mi
Dew Point: 43°   Wind: 3mph
Humidity: 71%   Direction: 300°WNW
Pressure: 29.91"   Gusts: NA
Location:  44.3536°N, 121.195°W
Report Text: KRDM 231956Z 30003KT 10SM SCT026 BKN065 11/06 A2991 RMK AO2 RAE05 SLP121 P0000 T01110061
Loading
Personal Weather Stations






























Interactive Weather Map
Tropical Storm Tracking
New forecast layout! Learn more

10-Day Weather Forecast

Advertisements
Track Severe Weather on mobile